sensor_id;sensor_type;location;lat;lon;timestamp;pressure;altitude;pressure_sealevel;temperature;humidity
3132;BME280;62090;52.330;9.104;2023-02-18T00:02:12;101439.88;;;9.59;74.98
3132;BME280;62090;52.330;9.104;2023-02-18T00:04:41;101443.06;;;9.54;75.24
3132;BME280;62090;52.330;9.104;2023-02-18T00:07:11;101427.19;;;9.39;75.31
3132;BME280;62090;52.330;9.104;2023-02-18T00:09:40;101440.50;;;9.54;75.71
3132;BME280;62090;52.330;9.104;2023-02-18T00:12:13;101411.00;;;9.37;75.49
3132;BME280;62090;52.330;9.104;2023-02-18T00:14:42;101433.31;;;9.44;75.07
3132;BME280;62090;52.330;9.104;2023-02-18T00:17:12;101446.16;;;9.47;75.83
3132;BME280;62090;52.330;9.104;2023-02-18T00:19:41;101434.19;;;9.44;75.55
3132;BME280;62090;52.330;9.104;2023-02-18T00:22:11;101431.94;;;9.52;75.53
3132;BME280;62090;52.330;9.104;2023-02-18T00:24:41;101434.44;;;9.50;75.80
3132;BME280;62090;52.330;9.104;2023-02-18T00:27:13;101416.69;;;9.31;75.63
3132;BME280;62090;52.330;9.104;2023-02-18T00:29:43;101441.03;;;9.45;76.50
3132;BME280;62090;52.330;9.104;2023-02-18T00:32:12;101433.22;;;9.41;76.85
3132;BME280;62090;52.330;9.104;2023-02-18T00:34:42;101361.34;;;9.03;76.45
3132;BME280;62090;52.330;9.104;2023-02-18T00:37:12;101440.78;;;9.39;76.57
3132;BME280;62090;52.330;9.104;2023-02-18T00:39:42;101385.13;;;9.05;76.60
3132;BME280;62090;52.330;9.104;2023-02-18T00:42:14;101424.91;;;9.24;76.41
3132;BME280;62090;52.330;9.104;2023-02-18T00:44:44;101434.91;;;9.19;77.53
3132;BME280;62090;52.330;9.104;2023-02-18T00:47:14;101423.28;;;9.26;76.87
3132;BME280;62090;52.330;9.104;2023-02-18T00:49:43;101440.72;;;9.38;77.10
3132;BME280;62090;52.330;9.104;2023-02-18T00:52:13;101449.47;;;9.44;77.12
3132;BME280;62090;52.330;9.104;2023-02-18T00:54:43;101450.34;;;9.45;77.35
3132;BME280;62090;52.330;9.104;2023-02-18T00:57:15;101408.09;;;9.27;77.47
3132;BME280;62090;52.330;9.104;2023-02-18T00:59:45;101422.53;;;9.28;77.94
3132;BME280;62090;52.330;9.104;2023-02-18T01:02:14;101419.56;;;9.18;78.31
3132;BME280;62090;52.330;9.104;2023-02-18T01:04:44;101448.66;;;9.45;78.30
3132;BME280;62090;52.330;9.104;2023-02-18T01:07:14;101437.69;;;9.46;78.09
3132;BME280;62090;52.330;9.104;2023-02-18T01:09:43;101443.75;;;9.50;77.54
3132;BME280;62090;52.330;9.104;2023-02-18T01:12:16;101452.50;;;9.56;77.95
3132;BME280;62090;52.330;9.104;2023-02-18T01:14:46;101450.84;;;9.57;77.72
3132;BME280;62090;52.330;9.104;2023-02-18T01:17:16;101432.31;;;9.61;77.91
3132;BME280;62090;52.330;9.104;2023-02-18T01:19:46;101437.16;;;9.55;78.75
3132;BME280;62090;52.330;9.104;2023-02-18T01:22:15;101355.22;;;8.98;78.96
3132;BME280;62090;52.330;9.104;2023-02-18T01:24:45;101373.38;;;9.07;79.23
3132;BME280;62090;52.330;9.104;2023-02-18T01:27:18;101378.53;;;9.09;79.79
3132;BME280;62090;52.330;9.104;2023-02-18T01:29:48;101440.34;;;9.49;80.14
3132;BME280;62090;52.330;9.104;2023-02-18T01:32:18;101427.63;;;9.49;80.27
3132;BME280;62090;52.330;9.104;2023-02-18T01:34:49;101427.53;;;9.48;80.83
3132;BME280;62090;52.330;9.104;2023-02-18T01:37:19;101436.06;;;9.48;81.24
3132;BME280;62090;52.330;9.104;2023-02-18T01:39:50;101439.41;;;9.47;82.05
3132;BME280;62090;52.330;9.104;2023-02-18T01:42:24;101358.72;;;9.02;82.03
3132;BME280;62090;52.330;9.104;2023-02-18T01:47:54;101364.53;;;8.99;83.89
3132;BME280;62090;52.330;9.104;2023-02-18T01:50:25;101419.31;;;9.32;84.64
3132;BME280;62090;52.330;9.104;2023-02-18T01:52:56;101359.06;;;9.09;84.47
3132;BME280;62090;52.330;9.104;2023-02-18T01:55:29;101389.97;;;9.41;85.05
3132;BME280;62090;52.330;9.104;2023-02-18T01:58:02;101418.41;;;9.53;85.72
3132;BME280;62090;52.330;9.104;2023-02-18T02:00:32;101398.50;;;9.43;86.23
3132;BME280;62090;52.330;9.104;2023-02-18T02:03:03;101380.28;;;9.32;86.63
3132;BME280;62090;52.330;9.104;2023-02-18T02:05:33;101383.59;;;9.29;87.65
3132;BME280;62090;52.330;9.104;2023-02-18T02:08:04;101361.00;;;9.16;88.83
3132;BME280;62090;52.330;9.104;2023-02-18T02:10:44;101358.22;;;9.10;89.41
3132;BME280;62090;52.330;9.104;2023-02-18T02:13:27;101371.44;;;9.22;90.06
3132;BME280;62090;52.330;9.104;2023-02-18T02:16:04;101368.44;;;9.32;90.64
3132;BME280;62090;52.330;9.104;2023-02-18T02:18:50;101376.00;;;9.31;91.69
3132;BME280;62090;52.330;9.104;2023-02-18T02:21:41;101358.66;;;9.21;92.21
3132;BME280;62090;52.330;9.104;2023-02-18T02:24:50;101373.53;;;9.32;93.04
3132;BME280;62090;52.330;9.104;2023-02-18T02:27:30;101370.34;;;9.38;94.45
3132;BME280;62090;52.330;9.104;2023-02-18T02:36:13;101361.69;;;9.33;97.78
3132;BME280;62090;52.330;9.104;2023-02-18T02:38:52;101339.66;;;9.33;97.65
3132;BME280;62090;52.330;9.104;2023-02-18T02:41:36;101325.38;;;9.37;98.94
3132;BME280;62090;52.330;9.104;2023-02-18T02:44:18;101344.28;;;9.44;100.00
3132;BME280;62090;52.330;9.104;2023-02-18T02:46:51;101338.88;;;9.57;99.90
3132;BME280;62090;52.330;9.104;2023-02-18T02:49:31;101335.56;;;9.59;100.00
3132;BME280;62090;52.330;9.104;2023-02-18T02:52:07;101325.56;;;9.64;100.00
3132;BME280;62090;52.330;9.104;2023-02-18T02:54:38;101330.31;;;9.55;100.00
3132;BME280;62090;52.330;9.104;2023-02-18T03:00:38;101305.44;;;9.48;100.00
3132;BME280;62090;52.330;9.104;2023-02-18T03:03:35;101327.19;;;9.62;100.00
3132;BME280;62090;52.330;9.104;2023-02-18T03:06:31;101331.34;;;9.60;100.00
3132;BME280;62090;52.330;9.104;2023-02-18T03:09:11;101297.56;;;9.42;100.00
3132;BME280;62090;52.330;9.104;2023-02-18T03:11:52;101306.25;;;9.47;100.00
3132;BME280;62090;52.330;9.104;2023-02-18T03:14:27;101315.16;;;9.58;100.00
3132;BME280;62090;52.330;9.104;2023-02-18T03:17:02;101311.06;;;9.61;100.00
3132;BME280;62090;52.330;9.104;2023-02-18T03:19:37;101279.44;;;9.55;100.00
3132;BME280;62090;52.330;9.104;2023-02-18T03:22:11;101253.66;;;9.46;100.00
3132;BME280;62090;52.330;9.104;2023-02-18T03:24:46;101284.34;;;9.72;100.00
3132;BME280;62090;52.330;9.104;2023-02-18T03:27:20;101269.44;;;9.83;100.00
3132;BME280;62090;52.330;9.104;2023-02-18T03:29:55;101271.06;;;9.81;100.00
3132;BME280;62090;52.330;9.104;2023-02-18T03:32:28;101271.88;;;9.80;100.00
3132;BME280;62090;52.330;9.104;2023-02-18T03:35:01;101262.41;;;9.76;100.00
3132;BME280;62090;52.330;9.104;2023-02-18T03:37:32;101262.50;;;9.79;100.00
3132;BME280;62090;52.330;9.104;2023-02-18T03:40:09;101267.88;;;9.87;100.00
3132;BME280;62090;52.330;9.104;2023-02-18T03:42:39;101257.03;;;9.92;100.00
3132;BME280;62090;52.330;9.104;2023-02-18T03:45:10;101240.59;;;9.83;100.00
3132;BME280;62090;52.330;9.104;2023-02-18T03:47:40;101249.09;;;9.83;100.00
3132;BME280;62090;52.330;9.104;2023-02-18T03:50:10;101206.75;;;9.61;100.00
3132;BME280;62090;52.330;9.104;2023-02-18T03:52:40;101246.63;;;9.86;100.00
3132;BME280;62090;52.330;9.104;2023-02-18T03:55:12;101230.34;;;9.81;100.00
3132;BME280;62090;52.330;9.104;2023-02-18T03:57:42;101227.72;;;9.80;100.00
3132;BME280;62090;52.330;9.104;2023-02-18T04:00:12;101239.97;;;9.90;100.00
3132;BME280;62090;52.330;9.104;2023-02-18T04:02:42;101228.91;;;9.89;100.00
3132;BME280;62090;52.330;9.104;2023-02-18T04:05:12;101231.47;;;9.89;100.00
3132;BME280;62090;52.330;9.104;2023-02-18T04:07:42;101229.03;;;9.92;100.00
3132;BME280;62090;52.330;9.104;2023-02-18T04:10:14;101226.78;;;10.01;100.00
3132;BME280;62090;52.330;9.104;2023-02-18T04:12:44;101220.13;;;10.05;100.00
3132;BME280;62090;52.330;9.104;2023-02-18T04:15:13;101222.94;;;10.12;100.00
3132;BME280;62090;52.330;9.104;2023-02-18T04:17:43;101218.34;;;10.02;100.00
3132;BME280;62090;52.330;9.104;2023-02-18T04:20:12;101220.41;;;10.12;100.00
3132;BME280;62090;52.330;9.104;2023-02-18T04:22:42;101218.66;;;10.11;100.00
3132;BME280;62090;52.330;9.104;2023-02-18T04:25:14;101196.38;;;10.04;100.00
3132;BME280;62090;52.330;9.104;2023-02-18T04:27:44;101204.03;;;10.06;100.00
3132;BME280;62090;52.330;9.104;2023-02-18T04:30:14;101215.47;;;10.17;100.00
3132;BME280;62090;52.330;9.104;2023-02-18T04:32:44;101222.38;;;10.20;100.00
3132;BME280;62090;52.330;9.104;2023-02-18T04:35:14;101214.00;;;10.24;100.00
3132;BME280;62090;52.330;9.104;2023-02-18T04:37:44;101171.00;;;10.07;100.00
3132;BME280;62090;52.330;9.104;2023-02-18T04:40:16;101166.00;;;10.10;100.00
3132;BME280;62090;52.330;9.104;2023-02-18T04:42:46;101201.56;;;10.33;100.00
3132;BME280;62090;52.330;9.104;2023-02-18T04:45:16;101131.38;;;9.90;100.00
3132;BME280;62090;52.330;9.104;2023-02-18T04:47:46;101152.25;;;10.05;100.00
3132;BME280;62090;52.330;9.104;2023-02-18T04:50:16;101112.34;;;9.79;100.00
3132;BME280;62090;52.330;9.104;2023-02-18T04:52:46;101126.59;;;9.74;100.00
3132;BME280;62090;52.330;9.104;2023-02-18T04:55:19;101176.00;;;10.04;100.00
3132;BME280;62090;52.330;9.104;2023-02-18T04:57:49;101178.72;;;10.10;100.00
3132;BME280;62090;52.330;9.104;2023-02-18T05:00:19;101178.25;;;10.21;100.00
3132;BME280;62090;52.330;9.104;2023-02-18T05:02:49;101155.13;;;10.14;100.00
3132;BME280;62090;52.330;9.104;2023-02-18T05:05:19;101126.41;;;9.93;100.00
3132;BME280;62090;52.330;9.104;2023-02-18T05:07:49;101135.41;;;10.09;100.00
3132;BME280;62090;52.330;9.104;2023-02-18T05:10:21;101107.56;;;9.88;100.00
3132;BME280;62090;52.330;9.104;2023-02-18T05:12:51;101153.44;;;10.15;100.00
3132;BME280;62090;52.330;9.104;2023-02-18T05:15:21;101119.06;;;10.02;100.00
3132;BME280;62090;52.330;9.104;2023-02-18T05:17:51;101054.44;;;9.72;100.00
3132;BME280;62090;52.330;9.104;2023-02-18T05:20:21;101087.34;;;9.93;100.00
3132;BME280;62090;52.330;9.104;2023-02-18T05:22:50;101136.47;;;10.41;100.00
3132;BME280;62090;52.330;9.104;2023-02-18T05:25:23;101136.53;;;10.44;100.00
3132;BME280;62090;52.330;9.104;2023-02-18T05:27:52;101122.81;;;10.39;100.00
3132;BME280;62090;52.330;9.104;2023-02-18T05:30:22;101102.28;;;10.34;100.00
3132;BME280;62090;52.330;9.104;2023-02-18T05:32:52;101116.91;;;10.40;100.00
3132;BME280;62090;52.330;9.104;2023-02-18T05:35:21;101074.13;;;10.30;100.00
3132;BME280;62090;52.330;9.104;2023-02-18T05:37:51;101065.63;;;10.29;100.00
3132;BME280;62090;52.330;9.104;2023-02-18T05:40:23;101088.28;;;10.48;100.00
3132;BME280;62090;52.330;9.104;2023-02-18T05:42:53;101059.66;;;10.29;100.00
3132;BME280;62090;52.330;9.104;2023-02-18T05:45:23;101082.50;;;10.54;100.00
3132;BME280;62090;52.330;9.104;2023-02-18T05:47:52;101088.72;;;10.64;100.00
3132;BME280;62090;52.330;9.104;2023-02-18T05:50:22;101091.28;;;10.64;100.00
3132;BME280;62090;52.330;9.104;2023-02-18T05:52:52;101076.97;;;10.67;100.00
3132;BME280;62090;52.330;9.104;2023-02-18T05:55:24;101063.25;;;10.64;100.00
3132;BME280;62090;52.330;9.104;2023-02-18T05:57:54;101031.34;;;10.48;100.00
3132;BME280;62090;52.330;9.104;2023-02-18T06:00:24;101057.44;;;10.68;100.00
3132;BME280;62090;52.330;9.104;2023-02-18T06:02:55;101042.72;;;10.59;100.00
3132;BME280;62090;52.330;9.104;2023-02-18T06:05:25;101046.31;;;10.66;100.00
3132;BME280;62090;52.330;9.104;2023-02-18T06:07:55;101034.03;;;10.52;100.00
3132;BME280;62090;52.330;9.104;2023-02-18T06:10:27;101024.53;;;10.47;100.00
3132;BME280;62090;52.330;9.104;2023-02-18T06:12:56;101032.34;;;10.53;100.00
3132;BME280;62090;52.330;9.104;2023-02-18T06:15:28;100989.28;;;10.32;100.00
3132;BME280;62090;52.330;9.104;2023-02-18T06:17:57;100948.97;;;10.18;100.00
3132;BME280;62090;52.330;9.104;2023-02-18T06:20:27;100993.06;;;10.45;100.00
3132;BME280;62090;52.330;9.104;2023-02-18T06:22:57;101016.25;;;10.54;100.00
3132;BME280;62090;52.330;9.104;2023-02-18T06:25:29;100940.50;;;10.19;100.00
3132;BME280;62090;52.330;9.104;2023-02-18T06:27:59;100977.22;;;10.27;100.00
3132;BME280;62090;52.330;9.104;2023-02-18T06:30:29;100984.31;;;10.37;100.00
3132;BME280;62090;52.330;9.104;2023-02-18T06:32:58;100972.25;;;10.31;100.00
3132;BME280;62090;52.330;9.104;2023-02-18T06:35:30;100934.94;;;10.03;100.00
3132;BME280;62090;52.330;9.104;2023-02-18T06:38:00;100982.47;;;10.31;100.00
3132;BME280;62090;52.330;9.104;2023-02-18T06:40:33;100981.88;;;10.40;100.00
3132;BME280;62090;52.330;9.104;2023-02-18T06:43:02;100972.38;;;10.34;100.00
3132;BME280;62090;52.330;9.104;2023-02-18T06:45:32;100977.59;;;10.39;100.00
3132;BME280;62090;52.330;9.104;2023-02-18T06:48:02;100973.50;;;10.44;100.00
3132;BME280;62090;52.330;9.104;2023-02-18T06:50:31;100962.94;;;10.32;100.00
3132;BME280;62090;52.330;9.104;2023-02-18T06:53:01;100942.50;;;10.29;100.00
3132;BME280;62090;52.330;9.104;2023-02-18T06:55:33;100935.91;;;10.35;100.00
3132;BME280;62090;52.330;9.104;2023-02-18T06:58:03;100888.59;;;10.15;100.00
3132;BME280;62090;52.330;9.104;2023-02-18T07:00:33;100932.81;;;10.47;100.00
3132;BME280;62090;52.330;9.104;2023-02-18T07:03:04;100928.75;;;10.53;100.00
3132;BME280;62090;52.330;9.104;2023-02-18T07:05:34;100941.78;;;10.64;100.00
3132;BME280;62090;52.330;9.104;2023-02-18T07:08:04;100936.69;;;10.64;100.00
3132;BME280;62090;52.330;9.104;2023-02-18T07:10:36;100918.91;;;10.66;100.00
3132;BME280;62090;52.330;9.104;2023-02-18T07:13:06;100913.06;;;10.70;100.00
3132;BME280;62090;52.330;9.104;2023-02-18T07:15:36;100915.78;;;10.76;100.00
3132;BME280;62090;52.330;9.104;2023-02-18T07:18:05;100882.13;;;10.56;100.00
3132;BME280;62090;52.330;9.104;2023-02-18T07:20:35;100922.75;;;10.83;100.00
3132;BME280;62090;52.330;9.104;2023-02-18T07:23:05;100916.88;;;10.85;100.00
3132;BME280;62090;52.330;9.104;2023-02-18T07:25:37;100900.88;;;10.91;100.00
3132;BME280;62090;52.330;9.104;2023-02-18T07:28:07;100903.38;;;10.89;100.00
3132;BME280;62090;52.330;9.104;2023-02-18T07:30:37;100863.75;;;10.69;100.00
3132;BME280;62090;52.330;9.104;2023-02-18T07:33:06;100897.81;;;10.71;100.00
3132;BME280;62090;52.330;9.104;2023-02-18T07:35:36;100895.06;;;10.96;100.00
3132;BME280;62090;52.330;9.104;2023-02-18T07:38:06;100894.19;;;10.96;100.00
3132;BME280;62090;52.330;9.104;2023-02-18T07:40:38;100880.69;;;11.00;100.00
3132;BME280;62090;52.330;9.104;2023-02-18T07:43:07;100886.44;;;10.91;100.00
3132;BME280;62090;52.330;9.104;2023-02-18T07:45:37;100863.28;;;10.82;100.00
3132;BME280;62090;52.330;9.104;2023-02-18T07:48:07;100872.00;;;10.92;100.00
3132;BME280;62090;52.330;9.104;2023-02-18T07:50:38;100857.47;;;10.88;100.00
3132;BME280;62090;52.330;9.104;2023-02-18T07:53:09;100876.31;;;10.94;100.00
3132;BME280;62090;52.330;9.104;2023-02-18T07:55:42;100867.94;;;10.98;100.00
3132;BME280;62090;52.330;9.104;2023-02-18T07:58:20;100861.97;;;10.98;100.00
3132;BME280;62090;52.330;9.104;2023-02-18T08:00:50;100860.34;;;11.01;100.00
3132;BME280;62090;52.330;9.104;2023-02-18T08:03:21;100875.03;;;11.12;100.00
3132;BME280;62090;52.330;9.104;2023-02-18T08:05:52;100828.00;;;10.99;100.00
3132;BME280;62090;52.330;9.104;2023-02-18T08:08:40;100598.47;;;9.54;100.00
3132;BME280;62090;52.330;9.104;2023-02-18T08:11:54;100722.81;;;10.36;100.00
3132;BME280;62090;52.330;9.104;2023-02-18T08:15:01;100698.47;;;10.15;100.00
3132;BME280;62090;52.330;9.104;2023-02-18T08:17:45;100874.25;;;11.14;100.00
3132;BME280;62090;52.330;9.104;2023-02-18T08:20:40;100739.63;;;10.29;100.00
3132;BME280;62090;52.330;9.104;2023-02-18T08:23:28;100884.72;;;11.26;100.00
3132;BME280;62090;52.330;9.104;2023-02-18T08:26:06;100775.31;;;10.65;100.00
3132;BME280;62090;52.330;9.104;2023-02-18T08:28:57;100863.34;;;11.20;100.00
3132;BME280;62090;52.330;9.104;2023-02-18T08:31:39;100744.38;;;10.50;100.00
3132;BME280;62090;52.330;9.104;2023-02-18T08:34:22;100861.72;;;11.23;100.00
3132;BME280;62090;52.330;9.104;2023-02-18T08:36:57;100874.72;;;11.34;100.00
3132;BME280;62090;52.330;9.104;2023-02-18T08:39:33;100709.41;;;10.44;100.00
3132;BME280;62090;52.330;9.104;2023-02-18T08:42:20;100703.47;;;10.44;100.00
3132;BME280;62090;52.330;9.104;2023-02-18T08:48:01;100676.19;;;10.40;100.00
3132;BME280;62090;52.330;9.104;2023-02-18T08:50:51;100832.22;;;11.34;100.00
3132;BME280;62090;52.330;9.104;2023-02-18T08:53:36;100677.22;;;10.46;100.00
3132;BME280;62090;52.330;9.104;2023-02-18T08:56:17;100752.06;;;10.87;100.00
3132;BME280;62090;52.330;9.104;2023-02-18T08:59:00;100655.53;;;10.28;100.00
3132;BME280;62090;52.330;9.104;2023-02-18T09:01:46;100850.31;;;11.45;100.00
3132;BME280;62090;52.330;9.104;2023-02-18T09:04:40;100827.28;;;11.42;100.00
3132;BME280;62090;52.330;9.104;2023-02-18T09:07:17;100690.41;;;10.66;100.00
3132;BME280;62090;52.330;9.104;2023-02-18T09:10:05;100539.59;;;9.73;100.00
3132;BME280;62090;52.330;9.104;2023-02-18T09:16:04;100835.19;;;11.54;100.00
3132;BME280;62090;52.330;9.104;2023-02-18T09:19:14;100682.91;;;10.72;100.00
3132;BME280;62090;52.330;9.104;2023-02-18T09:22:10;100845.34;;;11.51;100.00
3132;BME280;62090;52.330;9.104;2023-02-18T09:29:06;100519.47;;;9.48;100.00
3132;BME280;62090;52.330;9.104;2023-02-18T09:57:59;100612.66;;;10.83;100.00
3132;BME280;62090;52.330;9.104;2023-02-18T10:01:19;100784.47;;;11.69;100.00
3132;BME280;62090;52.330;9.104;2023-02-18T10:04:13;100753.09;;;11.33;100.00
3132;BME280;62090;52.330;9.104;2023-02-18T10:06:48;100646.50;;;10.79;100.00
3132;BME280;62090;52.330;9.104;2023-02-18T10:09:21;100776.81;;;11.69;100.00
3132;BME280;62090;52.330;9.104;2023-02-18T10:11:55;100737.13;;;11.41;100.00
3132;BME280;62090;52.330;9.104;2023-02-18T10:14:28;100796.28;;;11.64;100.00
3132;BME280;62090;52.330;9.104;2023-02-18T10:16:59;100776.50;;;11.54;100.00
3132;BME280;62090;52.330;9.104;2023-02-18T10:19:31;100784.13;;;11.51;100.00
3132;BME280;62090;52.330;9.104;2023-02-18T10:22:04;100800.66;;;11.70;100.00
3132;BME280;62090;52.330;9.104;2023-02-18T10:24:37;100782.69;;;11.65;100.00
3132;BME280;62090;52.330;9.104;2023-02-18T10:27:09;100803.06;;;11.62;100.00
3132;BME280;62090;52.330;9.104;2023-02-18T10:29:44;100782.66;;;11.64;100.00
3132;BME280;62090;52.330;9.104;2023-02-18T10:32:19;100796.19;;;11.60;100.00
3132;BME280;62090;52.330;9.104;2023-02-18T10:34:52;100750.53;;;11.31;100.00
3132;BME280;62090;52.330;9.104;2023-02-18T10:37:44;100794.56;;;11.63;100.00
3132;BME280;62090;52.330;9.104;2023-02-18T10:40:19;100781.66;;;11.56;100.00
3132;BME280;62090;52.330;9.104;2023-02-18T10:43:01;100756.69;;;11.41;100.00
3132;BME280;62090;52.330;9.104;2023-02-18T10:45:39;100778.19;;;11.54;100.00
3132;BME280;62090;52.330;9.104;2023-02-18T10:48:25;100763.56;;;11.45;100.00
3132;BME280;62090;52.330;9.104;2023-02-18T10:51:03;100789.41;;;11.60;100.00
3132;BME280;62090;52.330;9.104;2023-02-18T10:53:39;100773.81;;;11.48;100.00
3132;BME280;62090;52.330;9.104;2023-02-18T10:56:31;100802.97;;;11.59;100.00
3132;BME280;62090;52.330;9.104;2023-02-18T10:59:09;100796.28;;;11.64;100.00
3132;BME280;62090;52.330;9.104;2023-02-18T11:01:42;100798.78;;;11.61;100.00
3132;BME280;62090;52.330;9.104;2023-02-18T11:04:14;100794.56;;;11.63;100.00
3132;BME280;62090;52.330;9.104;2023-02-18T11:06:46;100798.00;;;11.65;100.00
3132;BME280;62090;52.330;9.104;2023-02-18T11:09:27;100776.56;;;11.56;100.00
3132;BME280;62090;52.330;9.104;2023-02-18T11:12:01;100798.00;;;11.65;100.00
3132;BME280;62090;52.330;9.104;2023-02-18T11:14:37;100799.00;;;11.72;100.00
3132;BME280;62090;52.330;9.104;2023-02-18T11:17:25;100791.53;;;11.79;100.00
3132;BME280;62090;52.330;9.104;2023-02-18T11:19:56;100768.28;;;11.69;100.00
3132;BME280;62090;52.330;9.104;2023-02-18T11:22:29;100796.53;;;11.73;100.00
3132;BME280;62090;52.330;9.104;2023-02-18T11:25:00;100800.66;;;11.68;100.00
3132;BME280;62090;52.330;9.104;2023-02-18T11:27:37;100767.84;;;11.46;100.00
3132;BME280;62090;52.330;9.104;2023-02-18T11:30:18;100799.56;;;11.57;100.00
3132;BME280;62090;52.330;9.104;2023-02-18T11:32:53;100809.78;;;11.59;100.00
3132;BME280;62090;52.330;9.104;2023-02-18T11:35:28;100793.44;;;11.51;100.00
3132;BME280;62090;52.330;9.104;2023-02-18T11:37:59;100798.31;;;11.40;100.00
3132;BME280;62090;52.330;9.104;2023-02-18T11:40:32;100787.94;;;11.32;100.00
3132;BME280;62090;52.330;9.104;2023-02-18T11:43:23;100760.38;;;11.16;100.00
3132;BME280;62090;52.330;9.104;2023-02-18T11:46:10;100775.03;;;11.26;100.00
3132;BME280;62090;52.330;9.104;2023-02-18T11:48:45;100693.25;;;10.78;100.00
3132;BME280;62090;52.330;9.104;2023-02-18T11:51:18;100801.53;;;11.31;100.00
3132;BME280;62090;52.330;9.104;2023-02-18T11:53:58;100747.13;;;10.95;100.00
3132;BME280;62090;52.330;9.104;2023-02-18T11:56:30;100802.38;;;11.32;100.00
3132;BME280;62090;52.330;9.104;2023-02-18T11:59:02;100727.66;;;10.97;100.00
3132;BME280;62090;52.330;9.104;2023-02-18T12:01:40;100793.00;;;11.29;100.00
3132;BME280;62090;52.330;9.104;2023-02-18T12:04:15;100802.47;;;11.35;100.00
3132;BME280;62090;52.330;9.104;2023-02-18T12:06:51;100768.81;;;11.14;100.00
3132;BME280;62090;52.330;9.104;2023-02-18T12:09:28;100805.94;;;11.38;100.00
3132;BME280;62090;52.330;9.104;2023-02-18T12:12:00;100801.69;;;11.39;100.00
3132;BME280;62090;52.330;9.104;2023-02-18T12:14:31;100804.06;;;11.30;100.00
3132;BME280;62090;52.330;9.104;2023-02-18T12:17:19;100812.59;;;11.32;100.00
3132;BME280;62090;52.330;9.104;2023-02-18T12:23:01;100756.41;;;10.91;100.00
3132;BME280;62090;52.330;9.104;2023-02-18T12:25:39;100777.94;;;11.02;100.00
3132;BME280;62090;52.330;9.104;2023-02-18T12:28:23;100801.16;;;11.15;100.00
3132;BME280;62090;52.330;9.104;2023-02-18T12:31:14;100765.69;;;10.89;100.00
3132;BME280;62090;52.330;9.104;2023-02-18T12:34:00;100830.44;;;11.30;100.00
3132;BME280;62090;52.330;9.104;2023-02-18T12:36:48;100774.75;;;11.13;100.00
3132;BME280;62090;52.330;9.104;2023-02-18T12:39:35;100786.81;;;11.20;100.00
3132;BME280;62090;52.330;9.104;2023-02-18T12:43:10;100600.63;;;10.04;100.00
3132;BME280;62090;52.330;9.104;2023-02-18T12:46:49;100507.97;;;9.29;100.00
3132;BME280;62090;52.330;9.104;2023-02-18T13:24:57;100536.78;;;9.61;100.00
3132;BME280;62090;52.330;9.104;2023-02-18T13:31:26;100578.63;;;10.08;100.00
3132;BME280;62090;52.330;9.104;2023-02-18T13:34:01;100834.63;;;11.66;100.00
3132;BME280;62090;52.330;9.104;2023-02-18T14:09:46;100595.28;;;9.95;100.00
3132;BME280;62090;52.330;9.104;2023-02-18T14:30:23;100822.19;;;11.05;100.00
3132;BME280;62090;52.330;9.104;2023-02-18T14:32:57;100892.94;;;11.49;100.00
3132;BME280;62090;52.330;9.104;2023-02-18T14:35:32;100887.06;;;11.52;100.00
3132;BME280;62090;52.330;9.104;2023-02-18T14:38:15;100867.13;;;11.37;100.00
3132;BME280;62090;52.330;9.104;2023-02-18T14:40:54;100897.16;;;11.47;100.00
3132;BME280;62090;52.330;9.104;2023-02-18T14:43:43;100880.31;;;11.55;100.00
3132;BME280;62090;52.330;9.104;2023-02-18T14:46:31;100887.94;;;11.54;100.00
3132;BME280;62090;52.330;9.104;2023-02-18T14:49:36;100839.97;;;11.03;100.00
3132;BME280;62090;52.330;9.104;2023-02-18T15:00:38;100610.13;;;9.79;100.00
3132;BME280;62090;52.330;9.104;2023-02-18T15:03:59;100691.94;;;10.24;100.00
3132;BME280;62090;52.330;9.104;2023-02-18T15:07:45;100771.19;;;10.70;100.00
3132;BME280;62090;52.330;9.104;2023-02-18T15:11:59;100771.25;;;10.72;100.00
3132;BME280;62090;52.330;9.104;2023-02-18T15:42:35;100635.56;;;9.79;100.00
3132;BME280;62090;52.330;9.104;2023-02-18T15:45:44;100928.72;;;11.51;100.00
3132;BME280;62090;52.330;9.104;2023-02-18T15:48:23;100909.94;;;11.49;100.00
3132;BME280;62090;52.330;9.104;2023-02-18T15:51:03;100903.88;;;11.43;100.00
3132;BME280;62090;52.330;9.104;2023-02-18T15:53:45;100947.25;;;11.78;100.00
3132;BME280;62090;52.330;9.104;2023-02-18T15:56:27;100760.09;;;10.68;100.00
3132;BME280;62090;52.330;9.104;2023-02-18T15:59:16;100824.47;;;10.94;100.00
3132;BME280;62090;52.330;9.104;2023-02-18T16:05:00;100936.56;;;11.60;100.00
3132;BME280;62090;52.330;9.104;2023-02-18T17:58:11;101048.31;;;11.38;100.00
3132;BME280;62090;52.330;9.104;2023-02-18T19:36:48;101030.97;;;10.64;100.00
3132;BME280;62090;52.330;9.104;2023-02-18T19:39:18;101102.00;;;11.10;100.00
3132;BME280;62090;52.330;9.104;2023-02-18T19:41:48;101050.00;;;10.75;100.00
3132;BME280;62090;52.330;9.104;2023-02-18T19:44:17;101083.88;;;11.01;100.00
3132;BME280;62090;52.330;9.104;2023-02-18T19:46:47;101101.13;;;11.10;100.00
3132;BME280;62090;52.330;9.104;2023-02-18T19:49:17;101095.03;;;11.05;100.00
3132;BME280;62090;52.330;9.104;2023-02-18T19:51:49;101046.50;;;10.72;100.00
3132;BME280;62090;52.330;9.104;2023-02-18T19:54:19;101096.53;;;10.98;100.00
3132;BME280;62090;52.330;9.104;2023-02-18T19:56:49;101050.81;;;10.74;100.00
3132;BME280;62090;52.330;9.104;2023-02-18T19:59:18;101100.25;;;11.09;100.00
3132;BME280;62090;52.330;9.104;2023-02-18T20:01:48;101089.09;;;11.06;100.00
3132;BME280;62090;52.330;9.104;2023-02-18T20:04:18;101014.81;;;10.62;100.00
3132;BME280;62090;52.330;9.104;2023-02-18T21:11:25;101087.88;;;11.23;100.00
3132;BME280;62090;52.330;9.104;2023-02-18T21:18:55;100752.56;;;9.17;100.00
3132;BME280;62090;52.330;9.104;2023-02-18T23:27:14;100946.91;;;10.97;100.00
